sensor_id;sensor_type;location;lat;lon;timestamp;temperature;humidity
9730;DHT22;4904;49.152;11.004;2022-09-09T00:01:46;15.00;99.90
9730;DHT22;4904;49.152;11.004;2022-09-09T00:04:24;15.10;99.90
9730;DHT22;4904;49.152;11.004;2022-09-09T00:06:59;15.00;99.90
9730;DHT22;4904;49.152;11.004;2022-09-09T00:09:28;15.00;99.90
9730;DHT22;4904;49.152;11.004;2022-09-09T00:12:00;15.00;99.90
9730;DHT22;4904;49.152;11.004;2022-09-09T00:14:37;15.00;99.90
9730;DHT22;4904;49.152;11.004;2022-09-09T00:17:11;15.10;99.90
9730;DHT22;4904;49.152;11.004;2022-09-09T00:19:41;15.00;99.90
9730;DHT22;4904;49.152;11.004;2022-09-09T00:22:16;15.00;99.90
9730;DHT22;4904;49.152;11.004;2022-09-09T00:24:45;15.00;99.90
9730;DHT22;4904;49.152;11.004;2022-09-09T00:27:19;14.80;99.90
9730;DHT22;4904;49.152;11.004;2022-09-09T00:29:53;15.00;99.90
9730;DHT22;4904;49.152;11.004;2022-09-09T00:32:24;14.90;99.90
9730;DHT22;4904;49.152;11.004;2022-09-09T00:34:56;14.90;99.90
9730;DHT22;4904;49.152;11.004;2022-09-09T00:37:25;14.80;99.90
9730;DHT22;4904;49.152;11.004;2022-09-09T00:39:55;14.70;99.90
9730;DHT22;4904;49.152;11.004;2022-09-09T00:42:25;14.70;99.90
9730;DHT22;4904;49.152;11.004;2022-09-09T00:44:58;14.80;99.90
9730;DHT22;4904;49.152;11.004;2022-09-09T00:47:46;14.80;99.90
9730;DHT22;4904;49.152;11.004;2022-09-09T00:53:12;14.80;99.90
9730;DHT22;4904;49.152;11.004;2022-09-09T00:55:48;14.80;99.90
9730;DHT22;4904;49.152;11.004;2022-09-09T00:58:15;14.60;99.90
9730;DHT22;4904;49.152;11.004;2022-09-09T01:00:44;14.60;99.90
9730;DHT22;4904;49.152;11.004;2022-09-09T01:03:31;14.70;99.90
9730;DHT22;4904;49.152;11.004;2022-09-09T01:06:02;14.70;99.90
9730;DHT22;4904;49.152;11.004;2022-09-09T01:08:58;14.60;99.90
9730;DHT22;4904;49.152;11.004;2022-09-09T01:11:33;14.60;99.90
9730;DHT22;4904;49.152;11.004;2022-09-09T01:14:13;14.60;99.90
9730;DHT22;4904;49.152;11.004;2022-09-09T01:16:43;14.50;99.90
9730;DHT22;4904;49.152;11.004;2022-09-09T01:19:19;14.50;99.90
9730;DHT22;4904;49.152;11.004;2022-09-09T01:21:59;14.70;99.90
9730;DHT22;4904;49.152;11.004;2022-09-09T01:24:31;14.70;99.90
9730;DHT22;4904;49.152;11.004;2022-09-09T01:27:04;14.50;99.90
9730;DHT22;4904;49.152;11.004;2022-09-09T01:29:32;14.50;99.90
9730;DHT22;4904;49.152;11.004;2022-09-09T01:32:00;14.50;99.90
9730;DHT22;4904;49.152;11.004;2022-09-09T01:34:32;14.50;99.90
9730;DHT22;4904;49.152;11.004;2022-09-09T01:37:03;14.60;99.90
9730;DHT22;4904;49.152;11.004;2022-09-09T01:39:31;14.50;99.90
9730;DHT22;4904;49.152;11.004;2022-09-09T01:41:59;14.40;99.90
9730;DHT22;4904;49.152;11.004;2022-09-09T01:44:28;14.40;99.90
9730;DHT22;4904;49.152;11.004;2022-09-09T01:46:55;14.30;99.90
9730;DHT22;4904;49.152;11.004;2022-09-09T01:49:23;14.40;99.90
9730;DHT22;4904;49.152;11.004;2022-09-09T01:51:52;14.50;99.90
9730;DHT22;4904;49.152;11.004;2022-09-09T01:54:22;14.50;99.90
9730;DHT22;4904;49.152;11.004;2022-09-09T01:56:57;14.60;99.90
9730;DHT22;4904;49.152;11.004;2022-09-09T01:59:53;14.80;99.90
9730;DHT22;4904;49.152;11.004;2022-09-09T02:02:26;14.70;99.90
9730;DHT22;4904;49.152;11.004;2022-09-09T02:05:04;14.70;99.90
9730;DHT22;4904;49.152;11.004;2022-09-09T02:07:38;14.80;99.90
9730;DHT22;4904;49.152;11.004;2022-09-09T02:10:10;14.70;99.90
9730;DHT22;4904;49.152;11.004;2022-09-09T02:12:42;14.80;99.90
9730;DHT22;4904;49.152;11.004;2022-09-09T02:15:20;14.80;99.90
9730;DHT22;4904;49.152;11.004;2022-09-09T02:17:50;14.90;99.90
9730;DHT22;4904;49.152;11.004;2022-09-09T02:20:19;14.80;99.90
9730;DHT22;4904;49.152;11.004;2022-09-09T02:22:49;14.80;99.90
9730;DHT22;4904;49.152;11.004;2022-09-09T02:25:20;14.80;99.90
9730;DHT22;4904;49.152;11.004;2022-09-09T02:27:49;14.80;99.90
9730;DHT22;4904;49.152;11.004;2022-09-09T02:30:19;14.70;99.90
9730;DHT22;4904;49.152;11.004;2022-09-09T02:32:49;14.70;99.90
9730;DHT22;4904;49.152;11.004;2022-09-09T02:35:21;14.60;99.90
9730;DHT22;4904;49.152;11.004;2022-09-09T02:37:51;14.60;99.90
9730;DHT22;4904;49.152;11.004;2022-09-09T02:40:20;14.60;99.90
9730;DHT22;4904;49.152;11.004;2022-09-09T02:42:48;14.60;99.90
9730;DHT22;4904;49.152;11.004;2022-09-09T02:45:19;14.60;99.90
9730;DHT22;4904;49.152;11.004;2022-09-09T02:47:51;14.60;99.90
9730;DHT22;4904;49.152;11.004;2022-09-09T02:50:24;14.40;99.90
9730;DHT22;4904;49.152;11.004;2022-09-09T02:53:01;14.30;99.90
9730;DHT22;4904;49.152;11.004;2022-09-09T02:55:38;14.20;99.90
9730;DHT22;4904;49.152;11.004;2022-09-09T02:58:07;14.30;99.90
9730;DHT22;4904;49.152;11.004;2022-09-09T03:00:39;14.40;99.90
9730;DHT22;4904;49.152;11.004;2022-09-09T03:03:06;14.40;99.90
9730;DHT22;4904;49.152;11.004;2022-09-09T03:05:34;14.50;99.90
9730;DHT22;4904;49.152;11.004;2022-09-09T03:08:02;14.50;99.90
9730;DHT22;4904;49.152;11.004;2022-09-09T03:10:29;14.50;99.90
9730;DHT22;4904;49.152;11.004;2022-09-09T03:12:56;14.50;99.90
9730;DHT22;4904;49.152;11.004;2022-09-09T03:15:23;14.50;99.90
9730;DHT22;4904;49.152;11.004;2022-09-09T03:17:57;14.60;99.90
9730;DHT22;4904;49.152;11.004;2022-09-09T03:20:24;14.60;99.90
9730;DHT22;4904;49.152;11.004;2022-09-09T03:22:52;14.70;99.90
9730;DHT22;4904;49.152;11.004;2022-09-09T03:25:19;14.70;99.90
9730;DHT22;4904;49.152;11.004;2022-09-09T03:27:46;14.70;99.90
9730;DHT22;4904;49.152;11.004;2022-09-09T03:30:13;14.80;99.90
9730;DHT22;4904;49.152;11.004;2022-09-09T03:32:40;14.80;99.90
9730;DHT22;4904;49.152;11.004;2022-09-09T03:35:09;14.60;99.90
9730;DHT22;4904;49.152;11.004;2022-09-09T03:37:36;14.50;99.90
9730;DHT22;4904;49.152;11.004;2022-09-09T03:40:05;14.60;99.90
9730;DHT22;4904;49.152;11.004;2022-09-09T03:42:32;14.70;99.90
9730;DHT22;4904;49.152;11.004;2022-09-09T03:44:59;14.80;99.90
9730;DHT22;4904;49.152;11.004;2022-09-09T03:47:26;14.80;99.90
9730;DHT22;4904;49.152;11.004;2022-09-09T03:49:53;14.80;99.90
9730;DHT22;4904;49.152;11.004;2022-09-09T03:52:21;14.70;99.90
9730;DHT22;4904;49.152;11.004;2022-09-09T03:54:50;14.90;99.90
9730;DHT22;4904;49.152;11.004;2022-09-09T03:57:17;14.90;99.90
9730;DHT22;4904;49.152;11.004;2022-09-09T03:59:44;14.90;99.90
9730;DHT22;4904;49.152;11.004;2022-09-09T04:02:11;14.90;99.90
9730;DHT22;4904;49.152;11.004;2022-09-09T04:04:38;14.80;99.90
9730;DHT22;4904;49.152;11.004;2022-09-09T04:07:05;14.70;99.90
9730;DHT22;4904;49.152;11.004;2022-09-09T04:09:34;14.70;99.90
9730;DHT22;4904;49.152;11.004;2022-09-09T04:12:01;14.70;99.90
9730;DHT22;4904;49.152;11.004;2022-09-09T04:14:28;14.70;99.90
9730;DHT22;4904;49.152;11.004;2022-09-09T04:16:55;14.70;99.90
9730;DHT22;4904;49.152;11.004;2022-09-09T04:19:23;14.70;99.90
9730;DHT22;4904;49.152;11.004;2022-09-09T04:21:49;14.70;99.90
9730;DHT22;4904;49.152;11.004;2022-09-09T04:24:17;14.70;99.90
9730;DHT22;4904;49.152;11.004;2022-09-09T04:26:45;14.70;99.90
9730;DHT22;4904;49.152;11.004;2022-09-09T04:29:12;14.70;99.90
9730;DHT22;4904;49.152;11.004;2022-09-09T04:31:39;14.70;99.90
9730;DHT22;4904;49.152;11.004;2022-09-09T04:34:07;14.70;99.90
9730;DHT22;4904;49.152;11.004;2022-09-09T04:36:35;14.70;99.90
9730;DHT22;4904;49.152;11.004;2022-09-09T04:39:02;14.70;99.90
9730;DHT22;4904;49.152;11.004;2022-09-09T04:41:29;14.70;99.90
9730;DHT22;4904;49.152;11.004;2022-09-09T04:43:58;14.70;99.90
9730;DHT22;4904;49.152;11.004;2022-09-09T04:46:26;14.90;99.90
9730;DHT22;4904;49.152;11.004;2022-09-09T04:48:53;14.70;99.90
9730;DHT22;4904;49.152;11.004;2022-09-09T04:51:20;14.80;99.90
9730;DHT22;4904;49.152;11.004;2022-09-09T04:53:47;14.80;99.90
9730;DHT22;4904;49.152;11.004;2022-09-09T04:56:17;14.80;99.90
9730;DHT22;4904;49.152;11.004;2022-09-09T04:58:44;14.80;99.90
9730;DHT22;4904;49.152;11.004;2022-09-09T05:01:15;14.80;99.90
9730;DHT22;4904;49.152;11.004;2022-09-09T05:03:43;14.80;99.90
9730;DHT22;4904;49.152;11.004;2022-09-09T05:06:12;14.80;99.90
9730;DHT22;4904;49.152;11.004;2022-09-09T05:08:41;14.80;99.90
9730;DHT22;4904;49.152;11.004;2022-09-09T05:11:19;14.90;99.90
9730;DHT22;4904;49.152;11.004;2022-09-09T05:13:48;14.90;99.90
9730;DHT22;4904;49.152;11.004;2022-09-09T05:16:17;15.00;99.90
9730;DHT22;4904;49.152;11.004;2022-09-09T05:18:45;15.00;99.90
9730;DHT22;4904;49.152;11.004;2022-09-09T05:21:13;15.10;99.90
9730;DHT22;4904;49.152;11.004;2022-09-09T05:23:41;15.20;99.90
9730;DHT22;4904;49.152;11.004;2022-09-09T05:26:11;15.20;99.90
9730;DHT22;4904;49.152;11.004;2022-09-09T05:28:39;15.30;99.90
9730;DHT22;4904;49.152;11.004;2022-09-09T05:31:07;15.30;99.90
9730;DHT22;4904;49.152;11.004;2022-09-09T05:33:36;15.30;99.90
9730;DHT22;4904;49.152;11.004;2022-09-09T05:36:05;15.40;99.90
9730;DHT22;4904;49.152;11.004;2022-09-09T05:38:33;15.40;99.90
9730;DHT22;4904;49.152;11.004;2022-09-09T05:41:02;15.40;99.90
9730;DHT22;4904;49.152;11.004;2022-09-09T05:43:29;15.50;99.90
9730;DHT22;4904;49.152;11.004;2022-09-09T05:46:02;15.50;99.90
9730;DHT22;4904;49.152;11.004;2022-09-09T05:48:30;15.50;99.90
9730;DHT22;4904;49.152;11.004;2022-09-09T05:50:59;15.40;99.90
9730;DHT22;4904;49.152;11.004;2022-09-09T05:53:26;15.40;99.90
9730;DHT22;4904;49.152;11.004;2022-09-09T05:56:00;15.30;99.90
9730;DHT22;4904;49.152;11.004;2022-09-09T05:58:29;15.10;99.90
9730;DHT22;4904;49.152;11.004;2022-09-09T06:01:07;15.00;99.90
9730;DHT22;4904;49.152;11.004;2022-09-09T06:03:34;15.00;99.90
9730;DHT22;4904;49.152;11.004;2022-09-09T06:06:04;15.00;99.90
9730;DHT22;4904;49.152;11.004;2022-09-09T06:08:32;14.90;99.90
9730;DHT22;4904;49.152;11.004;2022-09-09T06:11:03;14.90;99.90
9730;DHT22;4904;49.152;11.004;2022-09-09T06:13:30;14.90;99.90
9730;DHT22;4904;49.152;11.004;2022-09-09T06:15:58;14.90;99.90
9730;DHT22;4904;49.152;11.004;2022-09-09T06:18:25;14.90;99.90
9730;DHT22;4904;49.152;11.004;2022-09-09T06:21:00;14.90;99.90
9730;DHT22;4904;49.152;11.004;2022-09-09T06:23:31;14.90;99.90
9730;DHT22;4904;49.152;11.004;2022-09-09T06:26:03;15.00;99.90
9730;DHT22;4904;49.152;11.004;2022-09-09T06:28:31;15.10;99.90
9730;DHT22;4904;49.152;11.004;2022-09-09T06:30:58;15.20;99.90
9730;DHT22;4904;49.152;11.004;2022-09-09T06:33:26;15.20;99.90
9730;DHT22;4904;49.152;11.004;2022-09-09T06:35:53;15.20;99.90
9730;DHT22;4904;49.152;11.004;2022-09-09T06:38:22;15.30;99.90
9730;DHT22;4904;49.152;11.004;2022-09-09T06:40:54;15.30;99.90
9730;DHT22;4904;49.152;11.004;2022-09-09T06:43:23;15.20;99.90
9730;DHT22;4904;49.152;11.004;2022-09-09T06:45:55;15.20;99.90
9730;DHT22;4904;49.152;11.004;2022-09-09T06:48:22;15.30;99.90
9730;DHT22;4904;49.152;11.004;2022-09-09T06:50:51;15.50;99.90
9730;DHT22;4904;49.152;11.004;2022-09-09T06:53:19;15.60;99.90
9730;DHT22;4904;49.152;11.004;2022-09-09T06:55:46;15.60;99.90
9730;DHT22;4904;49.152;11.004;2022-09-09T06:58:14;15.60;99.90
9730;DHT22;4904;49.152;11.004;2022-09-09T07:00:41;15.70;99.90
9730;DHT22;4904;49.152;11.004;2022-09-09T07:03:09;15.70;99.90
9730;DHT22;4904;49.152;11.004;2022-09-09T07:05:36;15.70;99.90
9730;DHT22;4904;49.152;11.004;2022-09-09T07:08:03;15.60;99.90
9730;DHT22;4904;49.152;11.004;2022-09-09T07:10:31;15.60;99.90
9730;DHT22;4904;49.152;11.004;2022-09-09T07:12:59;15.70;99.90
9730;DHT22;4904;49.152;11.004;2022-09-09T07:15:29;15.70;99.90
9730;DHT22;4904;49.152;11.004;2022-09-09T07:17:55;15.90;99.90
9730;DHT22;4904;49.152;11.004;2022-09-09T07:20:27;15.90;99.90
9730;DHT22;4904;49.152;11.004;2022-09-09T07:22:55;16.00;99.90
9730;DHT22;4904;49.152;11.004;2022-09-09T07:25:22;16.10;99.90
9730;DHT22;4904;49.152;11.004;2022-09-09T07:27:49;16.20;99.90
9730;DHT22;4904;49.152;11.004;2022-09-09T07:30:16;16.30;99.90
9730;DHT22;4904;49.152;11.004;2022-09-09T07:32:46;16.40;99.90
9730;DHT22;4904;49.152;11.004;2022-09-09T07:35:13;16.60;99.90
9730;DHT22;4904;49.152;11.004;2022-09-09T07:37:40;16.70;99.90
9730;DHT22;4904;49.152;11.004;2022-09-09T07:40:07;16.80;99.90
9730;DHT22;4904;49.152;11.004;2022-09-09T07:42:35;16.80;99.90
9730;DHT22;4904;49.152;11.004;2022-09-09T07:45:03;16.90;99.90
9730;DHT22;4904;49.152;11.004;2022-09-09T07:47:31;17.10;99.90
9730;DHT22;4904;49.152;11.004;2022-09-09T07:49:59;17.10;99.90
9730;DHT22;4904;49.152;11.004;2022-09-09T07:52:27;17.30;99.90
9730;DHT22;4904;49.152;11.004;2022-09-09T07:54:54;17.40;99.90
9730;DHT22;4904;49.152;11.004;2022-09-09T07:57:22;17.60;99.90
9730;DHT22;4904;49.152;11.004;2022-09-09T07:59:49;17.70;99.90
9730;DHT22;4904;49.152;11.004;2022-09-09T08:02:16;17.80;99.90
9730;DHT22;4904;49.152;11.004;2022-09-09T08:04:43;17.80;99.90
9730;DHT22;4904;49.152;11.004;2022-09-09T08:07:11;17.90;99.90
9730;DHT22;4904;49.152;11.004;2022-09-09T08:09:38;18.10;99.90
9730;DHT22;4904;49.152;11.004;2022-09-09T08:12:06;18.10;99.90
9730;DHT22;4904;49.152;11.004;2022-09-09T08:14:34;18.40;99.90
9730;DHT22;4904;49.152;11.004;2022-09-09T08:17:01;18.50;99.90
9730;DHT22;4904;49.152;11.004;2022-09-09T08:19:28;18.50;99.90
9730;DHT22;4904;49.152;11.004;2022-09-09T08:21:56;18.60;99.90
9730;DHT22;4904;49.152;11.004;2022-09-09T08:24:24;18.60;99.90
9730;DHT22;4904;49.152;11.004;2022-09-09T08:26:51;18.60;99.90
9730;DHT22;4904;49.152;11.004;2022-09-09T08:29:19;18.50;99.90
9730;DHT22;4904;49.152;11.004;2022-09-09T08:31:47;18.60;99.90
9730;DHT22;4904;49.152;11.004;2022-09-09T08:34:15;18.50;99.90
9730;DHT22;4904;49.152;11.004;2022-09-09T08:36:44;18.60;99.90
9730;DHT22;4904;49.152;11.004;2022-09-09T08:39:13;18.80;99.90
9730;DHT22;4904;49.152;11.004;2022-09-09T08:41:58;19.00;99.90
9730;DHT22;4904;49.152;11.004;2022-09-09T08:44:36;19.20;99.90
9730;DHT22;4904;49.152;11.004;2022-09-09T08:47:11;19.40;99.90
9730;DHT22;4904;49.152;11.004;2022-09-09T08:50:13;19.50;99.90
9730;DHT22;4904;49.152;11.004;2022-09-09T08:52:47;19.50;99.90
9730;DHT22;4904;49.152;11.004;2022-09-09T08:55:22;19.50;99.90
9730;DHT22;4904;49.152;11.004;2022-09-09T08:57:54;19.50;99.90
9730;DHT22;4904;49.152;11.004;2022-09-09T09:00:23;19.60;99.90
9730;DHT22;4904;49.152;11.004;2022-09-09T09:03:02;19.70;99.90
9730;DHT22;4904;49.152;11.004;2022-09-09T09:05:40;19.80;99.90
9730;DHT22;4904;49.152;11.004;2022-09-09T09:08:17;19.90;99.90
9730;DHT22;4904;49.152;11.004;2022-09-09T09:10:49;20.00;99.90
9730;DHT22;4904;49.152;11.004;2022-09-09T09:13:21;20.10;99.90
9730;DHT22;4904;49.152;11.004;2022-09-09T09:15:53;20.10;99.90
9730;DHT22;4904;49.152;11.004;2022-09-09T09:18:22;20.30;99.90
9730;DHT22;4904;49.152;11.004;2022-09-09T09:20:53;20.50;99.90
9730;DHT22;4904;49.152;11.004;2022-09-09T09:23:24;20.60;99.90
9730;DHT22;4904;49.152;11.004;2022-09-09T09:25:55;20.70;99.90
9730;DHT22;4904;49.152;11.004;2022-09-09T09:28:28;20.70;99.90
9730;DHT22;4904;49.152;11.004;2022-09-09T09:30:58;20.80;99.90
9730;DHT22;4904;49.152;11.004;2022-09-09T09:33:31;21.00;99.90
9730;DHT22;4904;49.152;11.004;2022-09-09T09:35:59;21.00;99.90
9730;DHT22;4904;49.152;11.004;2022-09-09T09:38:27;20.90;99.90
9730;DHT22;4904;49.152;11.004;2022-09-09T09:40:56;20.90;99.90
9730;DHT22;4904;49.152;11.004;2022-09-09T09:43:27;20.90;99.90
9730;DHT22;4904;49.152;11.004;2022-09-09T09:45:55;21.00;99.90
9730;DHT22;4904;49.152;11.004;2022-09-09T09:48:24;21.00;99.90
9730;DHT22;4904;49.152;11.004;2022-09-09T09:50:53;21.00;99.90
9730;DHT22;4904;49.152;11.004;2022-09-09T09:53:23;21.10;99.90
9730;DHT22;4904;49.152;11.004;2022-09-09T09:55:56;21.30;99.90
9730;DHT22;4904;49.152;11.004;2022-09-09T09:58:26;21.40;99.90
9730;DHT22;4904;49.152;11.004;2022-09-09T10:00:55;21.50;99.90
9730;DHT22;4904;49.152;11.004;2022-09-09T10:03:25;21.40;99.90
9730;DHT22;4904;49.152;11.004;2022-09-09T10:05:53;21.40;99.90
9730;DHT22;4904;49.152;11.004;2022-09-09T10:08:22;21.50;99.90
9730;DHT22;4904;49.152;11.004;2022-09-09T10:11:14;21.20;99.90
9730;DHT22;4904;49.152;11.004;2022-09-09T10:13:55;21.40;99.90
9730;DHT22;4904;49.152;11.004;2022-09-09T10:16:41;21.50;99.90
9730;DHT22;4904;49.152;11.004;2022-09-09T10:22:15;21.60;99.90
9730;DHT22;4904;49.152;11.004;2022-09-09T10:24:59;21.80;99.90
9730;DHT22;4904;49.152;11.004;2022-09-09T10:27:38;21.70;99.90
9730;DHT22;4904;49.152;11.004;2022-09-09T10:30:16;21.70;99.90
9730;DHT22;4904;49.152;11.004;2022-09-09T10:32:48;21.70;99.90
9730;DHT22;4904;49.152;11.004;2022-09-09T10:35:30;21.80;99.90
9730;DHT22;4904;49.152;11.004;2022-09-09T10:38:14;21.80;99.90
9730;DHT22;4904;49.152;11.004;2022-09-09T10:40:49;21.90;99.90
9730;DHT22;4904;49.152;11.004;2022-09-09T10:46:32;21.60;99.90
9730;DHT22;4904;49.152;11.004;2022-09-09T10:49:09;21.40;99.90
9730;DHT22;4904;49.152;11.004;2022-09-09T10:51:45;21.50;99.90
9730;DHT22;4904;49.152;11.004;2022-09-09T10:54:28;21.50;99.90
9730;DHT22;4904;49.152;11.004;2022-09-09T10:57:03;21.60;99.90
9730;DHT22;4904;49.152;11.004;2022-09-09T10:59:33;21.70;99.90
9730;DHT22;4904;49.152;11.004;2022-09-09T11:02:11;21.80;99.90
9730;DHT22;4904;49.152;11.004;2022-09-09T11:04:41;21.90;99.90
9730;DHT22;4904;49.152;11.004;2022-09-09T11:07:23;21.90;99.90
9730;DHT22;4904;49.152;11.004;2022-09-09T11:09:54;22.10;99.90
9730;DHT22;4904;49.152;11.004;2022-09-09T11:12:25;22.20;99.90
9730;DHT22;4904;49.152;11.004;2022-09-09T11:14:57;22.10;99.90
9730;DHT22;4904;49.152;11.004;2022-09-09T11:17:35;22.00;99.90
9730;DHT22;4904;49.152;11.004;2022-09-09T11:20:06;22.00;99.90
9730;DHT22;4904;49.152;11.004;2022-09-09T11:22:39;21.80;99.90
9730;DHT22;4904;49.152;11.004;2022-09-09T11:25:15;21.80;99.90
9730;DHT22;4904;49.152;11.004;2022-09-09T11:27:53;21.90;99.90
9730;DHT22;4904;49.152;11.004;2022-09-09T11:30:27;22.00;99.90
9730;DHT22;4904;49.152;11.004;2022-09-09T11:33:19;22.30;99.90
9730;DHT22;4904;49.152;11.004;2022-09-09T11:36:02;22.00;99.90
9730;DHT22;4904;49.152;11.004;2022-09-09T11:38:40;22.00;99.90
9730;DHT22;4904;49.152;11.004;2022-09-09T11:41:09;22.30;99.90
9730;DHT22;4904;49.152;11.004;2022-09-09T11:43:39;22.10;99.90
9730;DHT22;4904;49.152;11.004;2022-09-09T11:46:08;22.10;99.90
9730;DHT22;4904;49.152;11.004;2022-09-09T11:48:38;21.70;99.90
9730;DHT22;4904;49.152;11.004;2022-09-09T11:51:10;21.70;99.90
9730;DHT22;4904;49.152;11.004;2022-09-09T11:53:48;21.70;99.90
9730;DHT22;4904;49.152;11.004;2022-09-09T11:56:25;21.90;99.90
9730;DHT22;4904;49.152;11.004;2022-09-09T11:58:58;22.00;99.90
9730;DHT22;4904;49.152;11.004;2022-09-09T12:01:37;22.20;99.90
9730;DHT22;4904;49.152;11.004;2022-09-09T12:04:17;22.10;99.90
9730;DHT22;4904;49.152;11.004;2022-09-09T12:06:46;22.00;99.90
9730;DHT22;4904;49.152;11.004;2022-09-09T12:09:22;22.10;99.90
9730;DHT22;4904;49.152;11.004;2022-09-09T12:11:50;22.30;99.90
9730;DHT22;4904;49.152;11.004;2022-09-09T12:14:22;22.50;99.90
9730;DHT22;4904;49.152;11.004;2022-09-09T12:16:49;22.50;99.90
9730;DHT22;4904;49.152;11.004;2022-09-09T12:19:20;22.20;99.90
9730;DHT22;4904;49.152;11.004;2022-09-09T12:21:56;22.00;99.90
9730;DHT22;4904;49.152;11.004;2022-09-09T12:24:32;22.20;99.90
9730;DHT22;4904;49.152;11.004;2022-09-09T12:27:09;22.20;99.90
9730;DHT22;4904;49.152;11.004;2022-09-09T12:29:44;22.20;99.90
9730;DHT22;4904;49.152;11.004;2022-09-09T12:32:16;22.20;99.90
9730;DHT22;4904;49.152;11.004;2022-09-09T12:34:48;22.30;99.90
9730;DHT22;4904;49.152;11.004;2022-09-09T12:37:26;21.90;99.90
9730;DHT22;4904;49.152;11.004;2022-09-09T12:39:56;22.00;99.90
9730;DHT22;4904;49.152;11.004;2022-09-09T12:42:24;22.10;99.90
9730;DHT22;4904;49.152;11.004;2022-09-09T12:44:53;21.90;99.90
9730;DHT22;4904;49.152;11.004;2022-09-09T12:47:22;22.20;99.90
9730;DHT22;4904;49.152;11.004;2022-09-09T12:49:51;22.00;99.90
9730;DHT22;4904;49.152;11.004;2022-09-09T12:52:25;21.90;99.90
9730;DHT22;4904;49.152;11.004;2022-09-09T12:54:57;21.70;99.90
9730;DHT22;4904;49.152;11.004;2022-09-09T12:57:26;21.70;99.90
9730;DHT22;4904;49.152;11.004;2022-09-09T13:00:11;21.70;99.90
9730;DHT22;4904;49.152;11.004;2022-09-09T13:02:47;21.70;99.90
9730;DHT22;4904;49.152;11.004;2022-09-09T13:05:19;21.70;99.90
9730;DHT22;4904;49.152;11.004;2022-09-09T13:07:47;21.60;99.90
9730;DHT22;4904;49.152;11.004;2022-09-09T13:10:18;21.50;99.90
9730;DHT22;4904;49.152;11.004;2022-09-09T13:12:47;21.50;99.90
9730;DHT22;4904;49.152;11.004;2022-09-09T13:15:20;21.60;99.90
9730;DHT22;4904;49.152;11.004;2022-09-09T13:17:53;21.60;99.90
9730;DHT22;4904;49.152;11.004;2022-09-09T13:20:23;21.50;99.90
9730;DHT22;4904;49.152;11.004;2022-09-09T13:22:52;21.30;99.90
9730;DHT22;4904;49.152;11.004;2022-09-09T13:25:23;21.10;99.90
9730;DHT22;4904;49.152;11.004;2022-09-09T13:28:02;20.90;99.90
9730;DHT22;4904;49.152;11.004;2022-09-09T13:30:30;20.70;99.90
9730;DHT22;4904;49.152;11.004;2022-09-09T13:33:22;20.30;99.90
9730;DHT22;4904;49.152;11.004;2022-09-09T13:35:57;19.50;99.90
9730;DHT22;4904;49.152;11.004;2022-09-09T13:38:32;18.80;99.90
9730;DHT22;4904;49.152;11.004;2022-09-09T13:41:01;18.60;99.90
9730;DHT22;4904;49.152;11.004;2022-09-09T13:43:31;18.60;99.90
9730;DHT22;4904;49.152;11.004;2022-09-09T13:46:00;18.50;99.90
9730;DHT22;4904;49.152;11.004;2022-09-09T13:48:28;18.50;99.90
9730;DHT22;4904;49.152;11.004;2022-09-09T13:50:59;18.40;99.90
9730;DHT22;4904;49.152;11.004;2022-09-09T13:53:26;18.60;99.90
9730;DHT22;4904;49.152;11.004;2022-09-09T13:55:54;18.90;99.90
9730;DHT22;4904;49.152;11.004;2022-09-09T13:58:22;19.10;99.90
9730;DHT22;4904;49.152;11.004;2022-09-09T14:00:51;19.40;99.90
9730;DHT22;4904;49.152;11.004;2022-09-09T14:03:21;19.70;99.90
9730;DHT22;4904;49.152;11.004;2022-09-09T14:05:48;19.90;99.90
9730;DHT22;4904;49.152;11.004;2022-09-09T14:08:22;20.30;99.90
9730;DHT22;4904;49.152;11.004;2022-09-09T14:10:49;20.70;99.90
9730;DHT22;4904;49.152;11.004;2022-09-09T14:13:18;20.90;99.90
9730;DHT22;4904;49.152;11.004;2022-09-09T14:15:48;21.00;99.90
9730;DHT22;4904;49.152;11.004;2022-09-09T14:18:15;21.20;99.90
9730;DHT22;4904;49.152;11.004;2022-09-09T14:20:42;21.30;99.90
9730;DHT22;4904;49.152;11.004;2022-09-09T14:23:10;21.40;99.90
9730;DHT22;4904;49.152;11.004;2022-09-09T14:25:41;21.40;99.90
9730;DHT22;4904;49.152;11.004;2022-09-09T14:28:10;21.30;99.90
9730;DHT22;4904;49.152;11.004;2022-09-09T14:30:38;21.00;99.90
9730;DHT22;4904;49.152;11.004;2022-09-09T14:33:06;20.80;99.90
9730;DHT22;4904;49.152;11.004;2022-09-09T14:35:34;20.70;99.90
9730;DHT22;4904;49.152;11.004;2022-09-09T14:38:02;20.70;99.90
9730;DHT22;4904;49.152;11.004;2022-09-09T14:40:29;20.70;99.90
9730;DHT22;4904;49.152;11.004;2022-09-09T14:42:57;20.70;99.90
9730;DHT22;4904;49.152;11.004;2022-09-09T14:45:26;20.70;99.90
9730;DHT22;4904;49.152;11.004;2022-09-09T14:47:53;20.80;99.90
9730;DHT22;4904;49.152;11.004;2022-09-09T14:50:25;20.80;99.90
9730;DHT22;4904;49.152;11.004;2022-09-09T14:52:57;20.90;99.90
9730;DHT22;4904;49.152;11.004;2022-09-09T14:55:24;21.00;99.90
9730;DHT22;4904;49.152;11.004;2022-09-09T14:57:54;21.20;99.90
9730;DHT22;4904;49.152;11.004;2022-09-09T15:00:22;21.30;99.90
9730;DHT22;4904;49.152;11.004;2022-09-09T15:02:52;21.30;99.90
9730;DHT22;4904;49.152;11.004;2022-09-09T15:05:19;21.30;99.90
9730;DHT22;4904;49.152;11.004;2022-09-09T15:07:46;21.10;99.90
9730;DHT22;4904;49.152;11.004;2022-09-09T15:10:14;21.00;99.90
9730;DHT22;4904;49.152;11.004;2022-09-09T15:12:43;21.00;99.90
9730;DHT22;4904;49.152;11.004;2022-09-09T15:15:10;20.90;99.90
9730;DHT22;4904;49.152;11.004;2022-09-09T15:17:39;21.00;99.90
9730;DHT22;4904;49.152;11.004;2022-09-09T15:20:07;20.80;99.90
9730;DHT22;4904;49.152;11.004;2022-09-09T15:22:35;20.70;99.90
9730;DHT22;4904;49.152;11.004;2022-09-09T15:25:04;20.60;99.90
9730;DHT22;4904;49.152;11.004;2022-09-09T15:27:31;20.50;99.90
9730;DHT22;4904;49.152;11.004;2022-09-09T15:29:59;20.50;99.90
9730;DHT22;4904;49.152;11.004;2022-09-09T15:32:27;20.70;99.90
9730;DHT22;4904;49.152;11.004;2022-09-09T15:34:56;20.90;99.90
9730;DHT22;4904;49.152;11.004;2022-09-09T15:37:23;21.00;99.90
9730;DHT22;4904;49.152;11.004;2022-09-09T15:39:50;21.00;99.90
9730;DHT22;4904;49.152;11.004;2022-09-09T15:42:17;21.00;99.90
9730;DHT22;4904;49.152;11.004;2022-09-09T15:44:43;21.00;99.90
9730;DHT22;4904;49.152;11.004;2022-09-09T15:47:11;21.10;99.90
9730;DHT22;4904;49.152;11.004;2022-09-09T15:49:39;21.10;99.90
9730;DHT22;4904;49.152;11.004;2022-09-09T15:52:10;21.10;99.90
9730;DHT22;4904;49.152;11.004;2022-09-09T15:54:37;21.20;99.90
9730;DHT22;4904;49.152;11.004;2022-09-09T15:57:06;21.10;99.90
9730;DHT22;4904;49.152;11.004;2022-09-09T15:59:33;21.00;99.90
9730;DHT22;4904;49.152;11.004;2022-09-09T16:02:00;20.90;99.90
9730;DHT22;4904;49.152;11.004;2022-09-09T16:04:28;20.90;99.90
9730;DHT22;4904;49.152;11.004;2022-09-09T16:06:57;20.90;99.90
9730;DHT22;4904;49.152;11.004;2022-09-09T16:09:27;20.90;99.90
9730;DHT22;4904;49.152;11.004;2022-09-09T16:11:56;20.90;99.90
9730;DHT22;4904;49.152;11.004;2022-09-09T16:14:24;20.80;99.90
9730;DHT22;4904;49.152;11.004;2022-09-09T16:16:52;20.90;99.90